Time;durP1;ratioP1;P1;durP2;ratioP2;P2;SDS_P1;SDS_P2;PMS_P1;PMS_P2;Temp;Humidity;BMP_temperature;BMP_pressure;BME280_temperature;BME280_humidity;BME280_pressure;Samples;Min_cycle;Max_cycle;Signal;HPM_P1;HPM_P2
2021/10/24 00:19:13;;;;;;;33.67;9.80;;;16.40;74.00;;;;;;5143818;27;20845;-65
2021/10/24 00:21:40;;;;;;;20.65;10.40;;;16.60;72.50;;;;;;5127018;27;20023;-65
2021/10/24 00:24:06;;;;;;;27.17;9.05;;;16.70;72.40;;;;;;5127105;27;20026;-65
2021/10/24 00:26:33;;;;;;;27.25;8.18;;;16.70;71.90;;;;;;5131439;27;20046;-65
2021/10/24 00:28:59;;;;;;;30.92;7.90;;;16.70;71.70;;;;;;5127669;27;20012;-65
2021/10/24 00:31:26;;;;;;;25.60;7.90;;;16.70;71.40;;;;;;5128582;27;20015;-66
2021/10/24 00:33:53;;;;;;;21.27;6.82;;;16.70;71.20;;;;;;5127147;27;20110;-66
2021/10/24 00:36:21;;;;;;;30.88;8.80;;;16.70;71.00;;;;;;5131690;27;20611;-65
2021/10/24 00:38:48;;;;;;;19.63;8.10;;;16.80;71.20;;;;;;5131359;27;20023;-72
2021/10/24 00:41:14;;;;;;;37.00;10.50;;;16.70;70.90;;;;;;5131370;27;20560;-66
2021/10/24 00:43:41;;;;;;;20.15;8.05;;;16.70;70.70;;;;;;5129546;27;20351;-65
2021/10/24 00:46:07;;;;;;;24.33;7.68;;;16.70;70.70;;;;;;5127981;27;20417;-67
2021/10/24 00:48:34;;;;;;;22.42;8.60;;;16.70;70.30;;;;;;5132896;27;20031;-67
2021/10/24 00:51:00;;;;;;;27.10;9.60;;;16.70;70.20;;;;;;5127052;27;20026;-66
2021/10/24 00:53:27;;;;;;;22.60;8.82;;;16.70;70.00;;;;;;5117738;27;20024;-67
2021/10/24 00:55:54;;;;;;;31.13;9.10;;;16.60;70.10;;;;;;5134300;27;20046;-65
2021/10/24 00:58:21;;;;;;;28.63;9.00;;;16.60;69.90;;;;;;5130292;27;20012;-65
2021/10/24 01:00:47;;;;;;;25.33;9.05;;;16.60;70.00;;;;;;5131456;27;20008;-71
2021/10/24 01:03:14;;;;;;;33.28;9.90;;;16.60;70.10;;;;;;5132299;27;20019;-68
2021/10/24 01:05:42;;;;;;;29.75;9.23;;;16.60;70.00;;;;;;5132544;27;20019;-65
2021/10/24 01:08:09;;;;;;;26.08;8.55;;;16.60;70.00;;;;;;5128257;27;20031;-69
2021/10/24 01:10:36;;;;;;;28.60;8.85;;;16.60;69.90;;;;;;5130440;27;20019;-66
2021/10/24 01:13:04;;;;;;;25.65;9.13;;;16.50;70.00;;;;;;5124050;27;20111;-66
2021/10/24 01:15:31;;;;;;;31.75;10.63;;;16.50;70.10;;;;;;5129780;27;20023;-67
2021/10/24 01:17:57;;;;;;;32.53;10.75;;;16.50;70.10;;;;;;5127025;27;20047;-67
2021/10/24 01:20:27;;;;;;;22.90;7.93;;;16.40;70.00;;;;;;5107581;27;20024;-66
2021/10/24 01:22:53;;;;;;;32.17;8.68;;;16.40;69.80;;;;;;5118594;27;20103;-68
2021/10/24 01:25:20;;;;;;;25.10;8.75;;;16.40;69.40;;;;;;5112077;27;20419;-65
2021/10/24 01:27:48;;;;;;;27.08;9.50;;;16.40;69.50;;;;;;5116360;27;20082;-66
2021/10/24 01:30:16;;;;;;;30.98;8.23;;;16.30;69.30;;;;;;5107537;27;20020;-71
2021/10/24 01:32:42;;;;;;;32.33;9.38;;;16.30;69.30;;;;;;5114522;27;20016;-66
2021/10/24 01:35:09;;;;;;;19.10;7.68;;;16.30;69.40;;;;;;5119172;27;20054;-66
2021/10/24 01:37:40;;;;;;;31.40;8.48;;;16.30;69.50;;;;;;5108856;27;20107;-66
2021/10/24 01:40:10;;;;;;;25.75;8.68;;;16.20;69.50;;;;;;5120453;27;20370;-65
2021/10/24 01:42:51;;;;;;;28.02;8.85;;;16.20;69.60;;;;;;5122695;27;20030;-66
2021/10/24 01:45:19;;;;;;;25.00;7.88;;;16.20;69.90;;;;;;5111801;27;20494;-65
2021/10/24 01:47:46;;;;;;;35.50;9.15;;;16.20;70.10;;;;;;5103724;27;20039;-66
2021/10/24 01:50:12;;;;;;;33.80;8.20;;;16.20;70.20;;;;;;5112188;27;20019;-71
2021/10/24 01:52:44;;;;;;;36.20;9.70;;;16.20;70.50;;;;;;5107625;27;20016;-66
2021/10/24 01:55:14;;;;;;;33.25;11.45;;;16.20;70.80;;;;;;5112458;27;20031;-66
2021/10/24 01:57:44;;;;;;;25.65;7.88;;;16.30;70.80;;;;;;5116191;27;20508;-67
2021/10/24 02:00:12;;;;;;;29.90;10.13;;;16.20;70.80;;;;;;5109633;27;20019;-65
2021/10/24 02:02:39;;;;;;;29.30;10.02;;;16.20;70.90;;;;;;5106262;27;20015;-65
2021/10/24 02:05:06;;;;;;;32.97;12.32;;;16.20;70.90;;;;;;5115253;27;20027;-65
2021/10/24 02:07:32;;;;;;;33.90;11.00;;;16.20;71.00;;;;;;5111250;27;20058;-65
2021/10/24 02:09:59;;;;;;;34.38;10.20;;;16.20;71.20;;;;;;5114216;27;20034;-65
2021/10/24 02:12:25;;;;;;;32.05;13.95;;;16.20;71.20;;;;;;5113030;27;20473;-65
2021/10/24 02:14:52;;;;;;;45.30;14.98;;;16.20;71.40;;;;;;5114949;27;20093;-65
2021/10/24 02:17:18;;;;;;;39.78;15.45;;;16.20;72.20;;;;;;5116553;27;20048;-66
2021/10/24 02:19:45;;;;;;;40.38;14.88;;;16.10;71.70;;;;;;5116623;27;20477;-65
2021/10/24 02:22:11;;;;;;;35.85;13.18;;;16.20;71.90;;;;;;5111920;27;20058;-66
2021/10/24 02:24:38;;;;;;;40.33;11.68;;;16.10;71.80;;;;;;5111331;27;20078;-66
2021/10/24 02:27:05;;;;;;;30.60;11.48;;;16.20;71.90;;;;;;5103483;27;20053;-67
2021/10/24 02:29:31;;;;;;;39.20;10.55;;;16.10;71.80;;;;;;5108559;27;20116;-66
2021/10/24 02:31:58;;;;;;;34.33;11.25;;;16.10;71.70;;;;;;5113656;27;20031;-66
2021/10/24 02:34:24;;;;;;;44.13;10.57;;;16.10;71.60;;;;;;5104287;27;20496;-66
2021/10/24 02:36:51;;;;;;;27.98;9.20;;;16.00;71.40;;;;;;5109717;27;20012;-65
2021/10/24 02:39:17;;;;;;;28.05;9.38;;;16.00;71.50;;;;;;5115096;27;20389;-65
2021/10/24 02:41:44;;;;;;;27.92;9.82;;;16.00;71.50;;;;;;5114919;27;20039;-66
2021/10/24 02:44:10;;;;;;;38.08;10.32;;;16.00;71.20;;;;;;5106635;27;20500;-71
2021/10/24 02:46:37;;;;;;;44.75;11.65;;;15.90;71.20;;;;;;5116977;27;20034;-65
2021/10/24 02:49:03;;;;;;;34.25;11.20;;;15.90;71.20;;;;;;5110090;27;20123;-65
2021/10/24 02:51:30;;;;;;;34.58;12.32;;;15.90;71.60;;;;;;5110378;27;20011;-65
2021/10/24 02:53:57;;;;;;;38.80;13.38;;;15.90;71.80;;;;;;5112328;27;20505;-66
2021/10/24 02:56:24;;;;;;;31.92;10.02;;;15.90;72.00;;;;;;5102474;27;20016;-65
2021/10/24 02:58:50;;;;;;;36.13;12.75;;;15.90;72.00;;;;;;5108784;27;20026;-66
2021/10/24 03:01:17;;;;;;;35.83;10.43;;;15.90;72.30;;;;;;5102986;27;20138;-67
2021/10/24 03:03:43;;;;;;;29.77;10.65;;;15.90;72.50;;;;;;5117499;27;20465;-66
2021/10/24 03:06:10;;;;;;;32.80;13.23;;;15.90;72.30;;;;;;5114809;27;20109;-67
2021/10/24 03:08:37;;;;;;;46.08;11.65;;;15.90;72.40;;;;;;5113704;27;20019;-65
2021/10/24 03:11:03;;;;;;;31.77;11.60;;;15.90;72.50;;;;;;5113852;27;20012;-67
2021/10/24 03:13:30;;;;;;;31.73;11.27;;;15.80;72.40;;;;;;5115035;27;20019;-65
2021/10/24 03:15:56;;;;;;;37.80;11.73;;;15.80;72.60;;;;;;5114839;27;20016;-65
2021/10/24 03:18:22;;;;;;;30.95;10.15;;;15.80;72.40;;;;;;5112624;27;20101;-66
2021/10/24 03:20:49;;;;;;;32.00;11.45;;;15.80;72.30;;;;;;5115777;27;20044;-65
2021/10/24 03:23:16;;;;;;;33.05;10.52;;;15.80;72.30;;;;;;5111807;27;20023;-67
2021/10/24 03:25:43;;;;;;;36.95;11.00;;;15.80;72.30;;;;;;5107970;27;20014;-65
2021/10/24 03:28:09;;;;;;;30.55;12.48;;;15.80;72.60;;;;;;5108162;27;20382;-66
2021/10/24 03:30:36;;;;;;;35.63;10.48;;;15.70;72.40;;;;;;5113005;27;20482;-65
2021/10/24 03:33:02;;;;;;;33.75;9.07;;;15.70;72.30;;;;;;5104390;28;20023;-66
2021/10/24 03:35:29;;;;;;;56.63;33.53;;;15.70;72.10;;;;;;5103085;28;20373;-66
2021/10/24 03:37:55;;;;;;;51.33;29.38;;;15.70;72.10;;;;;;5106909;28;20045;-65
2021/10/24 03:40:22;;;;;;;41.15;12.73;;;15.80;71.80;;;;;;5108387;27;20095;-73
2021/10/24 03:42:48;;;;;;;28.55;9.95;;;15.80;71.60;;;;;;5111922;27;20045;-66
2021/10/24 03:45:15;;;;;;;30.17;9.85;;;15.80;71.40;;;;;;5106292;28;20019;-67
2021/10/24 03:47:41;;;;;;;25.67;7.95;;;15.80;71.10;;;;;;5107564;28;20039;-65
2021/10/24 03:50:09;;;;;;;29.30;8.15;;;15.80;71.20;;;;;;5111749;27;20060;-65
2021/10/24 03:52:35;;;;;;;26.48;8.80;;;15.80;71.40;;;;;;5103469;28;20094;-66
2021/10/24 03:55:04;;;;;;;29.27;10.23;;;15.80;71.60;;;;;;5104933;28;20053;-72
2021/10/24 03:57:30;;;;;;;29.23;7.85;;;15.80;71.80;;;;;;5109535;27;20058;-74
2021/10/24 03:59:56;;;;;;;27.50;9.05;;;15.70;71.90;;;;;;5111539;28;20625;-69
2021/10/24 04:02:23;;;;;;;33.45;10.40;;;15.70;72.10;;;;;;5112450;27;20530;-65
2021/10/24 04:04:49;;;;;;;34.00;8.27;;;15.70;71.80;;;;;;5108118;28;20011;-66
2021/10/24 04:07:16;;;;;;;27.25;9.52;;;15.70;71.70;;;;;;5109250;28;20025;-73
2021/10/24 04:09:42;;;;;;;33.13;10.48;;;15.60;71.50;;;;;;5107515;28;20012;-70
2021/10/24 04:12:09;;;;;;;29.08;8.90;;;15.60;71.20;;;;;;5115355;28;20439;-65
2021/10/24 04:14:35;;;;;;;26.67;7.65;;;15.60;70.80;;;;;;5106394;28;20374;-72
2021/10/24 04:17:02;;;;;;;33.83;11.60;;;15.60;70.70;;;;;;5115711;28;20497;-66
2021/10/24 04:19:28;;;;;;;62.72;28.27;;;15.60;70.90;;;;;;5099018;28;20024;-69
2021/10/24 04:21:55;;;;;;;32.88;11.20;;;15.60;71.00;;;;;;5105195;28;20075;-66
2021/10/24 04:24:22;;;;;;;30.50;9.25;;;15.60;70.60;;;;;;5109663;28;20416;-68
2021/10/24 04:26:49;;;;;;;31.75;7.78;;;15.60;70.60;;;;;;5105790;28;20506;-71
2021/10/24 04:29:15;;;;;;;29.67;7.93;;;15.60;70.50;;;;;;5106663;28;20032;-71
2021/10/24 04:31:42;;;;;;;30.10;8.95;;;15.60;70.90;;;;;;5105374;28;20028;-70
2021/10/24 04:34:09;;;;;;;32.65;10.23;;;15.60;71.20;;;;;;5112991;28;20500;-64
2021/10/24 04:36:36;;;;;;;38.15;12.82;;;15.60;71.30;;;;;;5108349;28;20534;-65
2021/10/24 04:39:03;;;;;;;40.17;14.38;;;15.60;71.90;;;;;;5110061;28;20109;-64
2021/10/24 04:41:29;;;;;;;28.08;10.82;;;15.60;72.20;;;;;;5094213;28;20060;-73
2021/10/24 04:43:56;;;;;;;38.53;11.40;;;15.60;72.20;;;;;;5105302;28;20019;-70
2021/10/24 04:46:22;;;;;;;31.23;9.98;;;15.70;71.70;;;;;;5104576;27;20042;-71
2021/10/24 04:48:49;;;;;;;31.63;12.25;;;15.70;71.20;;;;;;5104382;28;20020;-65
2021/10/24 04:51:15;;;;;;;36.17;10.82;;;15.70;71.10;;;;;;5103444;28;20015;-65
2021/10/24 04:53:42;;;;;;;32.20;12.15;;;15.70;71.30;;;;;;5106949;27;20058;-69
2021/10/24 04:56:08;;;;;;;26.98;12.50;;;15.70;71.20;;;;;;5109072;27;20055;-72
2021/10/24 04:58:53;;;;;;;36.30;13.57;;;15.70;71.00;;;;;;5102455;27;20118;-65
2021/10/24 05:01:19;;;;;;;32.78;11.80;;;15.80;71.10;;;;;;5104225;27;20030;-65
2021/10/24 05:03:48;;;;;;;39.67;14.95;;;15.80;71.00;;;;;;5108191;27;20015;-70
2021/10/24 05:06:15;;;;;;;39.17;16.73;;;15.80;71.80;;;;;;5106630;27;20481;-65
2021/10/24 05:08:42;;;;;;;31.95;12.45;;;15.80;71.10;;;;;;5112266;27;20015;-68
2021/10/24 05:11:08;;;;;;;28.98;11.00;;;15.80;70.90;;;;;;5108769;27;20115;-74
2021/10/24 05:13:35;;;;;;;25.58;10.50;;;15.90;70.70;;;;;;5101717;27;20419;-73
2021/10/24 05:16:02;;;;;;;22.67;9.48;;;15.90;70.30;;;;;;5101465;27;20015;-71
2021/10/24 05:18:29;;;;;;;26.80;8.82;;;15.90;70.40;;;;;;5098186;27;20048;-68
2021/10/24 05:20:56;;;;;;;21.80;8.30;;;16.00;69.70;;;;;;5104620;27;20013;-66
2021/10/24 05:23:22;;;;;;;27.33;9.77;;;16.00;69.50;;;;;;5103251;28;20024;-67
2021/10/24 05:25:48;;;;;;;21.95;7.50;;;16.00;69.70;;;;;;5113117;27;20016;-67
2021/10/24 05:28:15;;;;;;;25.98;7.22;;;16.10;69.10;;;;;;5117333;27;20027;-67
2021/10/24 05:30:42;;;;;;;20.83;7.82;;;16.10;68.80;;;;;;5113452;27;20017;-67
2021/10/24 05:33:09;;;;;;;16.02;6.90;;;16.20;68.80;;;;;;5103621;27;20050;-68
2021/10/24 05:35:35;;;;;;;22.70;6.93;;;16.20;67.60;;;;;;5102710;28;20501;-70
2021/10/24 05:38:02;;;;;;;17.88;6.53;;;16.20;66.60;;;;;;5092548;27;20406;-69
2021/10/24 05:40:29;;;;;;;25.23;8.15;;;16.30;66.10;;;;;;5100385;27;20099;-72
2021/10/24 05:42:55;;;;;;;24.40;7.75;;;16.30;66.70;;;;;;5099249;27;20022;-70
2021/10/24 05:45:22;;;;;;;29.02;9.80;;;16.40;67.40;;;;;;5098939;27;20546;-71
2021/10/24 05:47:48;;;;;;;19.90;7.43;;;16.50;66.70;;;;;;5098828;27;20035;-68
2021/10/24 05:50:15;;;;;;;22.42;8.50;;;16.50;65.90;;;;;;5096015;27;20028;-66
2021/10/24 05:52:42;;;;;;;19.63;8.18;;;16.60;65.00;;;;;;5100088;28;20102;-66
2021/10/24 05:55:08;;;;;;;21.88;8.85;;;16.60;65.00;;;;;;5102736;27;20524;-67
2021/10/24 05:57:35;;;;;;;23.92;10.88;;;16.60;64.60;;;;;;5097506;27;20020;-65
2021/10/24 06:00:02;;;;;;;18.98;6.97;;;16.70;64.10;;;;;;5097251;27;20015;-70
2021/10/24 06:02:28;;;;;;;20.27;7.07;;;16.70;63.80;;;;;;5097145;27;20078;-65
2021/10/24 08:27:47;;;;;;;9.18;3.17;;;19.40;50.50;;;;;;5058954;27;20357;-69
2021/10/24 08:30:13;;;;;;;11.27;3.22;;;20.00;49.80;;;;;;5043365;28;20021;-68
2021/10/24 08:32:41;;;;;;;13.00;3.60;;;20.00;48.30;;;;;;5043099;28;20048;-69
2021/10/24 08:35:47;;;;;;;12.65;3.88;;;20.10;47.60;;;;;;5049866;28;20052;-68
2021/10/24 08:38:53;;;;;;;10.65;3.72;;;20.20;49.30;;;;;;5051666;28;20077;-68
2021/10/24 08:41:27;;;;;;;13.00;3.50;;;20.30;48.00;;;;;;5049614;28;20033;-67
2021/10/24 08:43:59;;;;;;;10.95;3.15;;;20.40;47.40;;;;;;5049647;28;20029;-71
2021/10/24 08:46:25;;;;;;;9.93;3.22;;;20.50;48.10;;;;;;5056050;28;20022;-68
2021/10/24 08:48:53;;;;;;;6.88;2.38;;;20.50;47.80;;;;;;5057151;28;20078;-68
2021/10/24 08:51:20;;;;;;;8.13;2.53;;;20.60;47.70;;;;;;5050672;28;20432;-71
2021/10/24 08:53:49;;;;;;;6.97;3.42;;;20.70;47.90;;;;;;5054846;28;20051;-67
2021/10/24 08:56:21;;;;;;;10.75;4.32;;;20.80;47.90;;;;;;5054082;28;20467;-70
2021/10/24 08:58:49;;;;;;;14.30;3.47;;;20.80;47.80;;;;;;5052986;28;20103;-71
2021/10/24 09:01:17;;;;;;;12.18;2.80;;;20.90;48.10;;;;;;5051096;28;20468;-68
2021/10/24 09:04:08;;;;;;;11.18;3.83;;;20.90;47.60;;;;;;5047875;28;20066;-68
2021/10/24 09:06:56;;;;;;;12.27;4.15;;;21.00;47.50;;;;;;5051544;28;20610;-69
2021/10/24 09:09:34;;;;;;;11.45;3.55;;;21.00;47.60;;;;;;5048944;28;20013;-71
2021/10/24 09:12:11;;;;;;;10.23;3.58;;;21.10;47.80;;;;;;5048349;28;20020;-67
2021/10/24 09:14:49;;;;;;;16.10;4.93;;;21.10;47.10;;;;;;5050679;28;20017;-70
2021/10/24 09:17:22;;;;;;;12.20;5.30;;;21.20;47.60;;;;;;5046049;28;20020;-71
2021/10/24 09:19:55;;;;;;;15.95;5.32;;;21.20;47.40;;;;;;5046889;28;20029;-67
2021/10/24 09:22:35;;;;;;;14.25;4.30;;;21.30;48.00;;;;;;5047979;28;20547;-71
2021/10/24 09:25:16;;;;;;;12.77;4.38;;;21.40;48.00;;;;;;5051820;28;20426;-68
2021/10/24 09:27:42;;;;;;;10.82;4.97;;;21.50;47.10;;;;;;5039079;28;20049;-69
2021/10/24 09:30:21;;;;;;;13.50;4.65;;;21.50;46.90;;;;;;5033635;28;20020;-65
2021/10/24 09:32:53;;;;;;;14.63;5.35;;;21.60;46.90;;;;;;5033970;28;20137;-69
2021/10/24 09:35:25;;;;;;;16.25;6.35;;;21.70;47.00;;;;;;5027086;28;20029;-67
2021/10/24 09:37:52;;;;;;;12.38;4.50;;;21.70;46.70;;;;;;5039251;28;20484;-71
2021/10/24 09:40:36;;;;;;;13.10;6.18;;;21.80;46.70;;;;;;5037700;28;20022;-69
2021/10/24 09:43:25;;;;;;;15.88;6.00;;;21.80;46.70;;;;;;5032431;28;20029;-69
2021/10/24 09:46:12;;;;;;;15.35;6.38;;;22.00;46.90;;;;;;5031843;28;20025;-71
2021/10/24 09:48:44;;;;;;;17.83;4.93;;;22.00;46.60;;;;;;5025430;28;20056;-73
2021/10/24 09:51:13;;;;;;;16.35;6.70;;;22.10;46.00;;;;;;5015473;28;20393;-72
2021/10/24 09:53:47;;;;;;;18.10;7.45;;;22.10;45.10;;;;;;5026692;28;20017;-69
2021/10/24 09:56:19;;;;;;;11.93;4.80;;;22.20;45.80;;;;;;5034047;28;20401;-73
2021/10/24 09:58:48;;;;;;;14.45;5.22;;;22.20;45.80;;;;;;5019744;28;20030;-71
2021/10/24 10:01:18;;;;;;;15.95;5.38;;;22.30;45.10;;;;;;5026626;28;20014;-71
2021/10/24 10:03:48;;;;;;;13.43;5.40;;;22.30;45.30;;;;;;5027896;28;20014;-66
2021/10/24 10:06:23;;;;;;;7.28;3.72;;;22.40;45.40;;;;;;5022418;28;20372;-65
2021/10/24 10:08:50;;;;;;;9.35;3.22;;;22.50;45.00;;;;;;5021323;28;20037;-70
2021/10/24 10:11:23;;;;;;;14.10;4.65;;;22.50;44.90;;;;;;5023034;28;20780;-66
2021/10/24 10:14:24;;;;;;;12.77;4.43;;;22.60;45.10;;;;;;5021570;28;20376;-70
2021/10/24 10:17:08;;;;;;;13.80;4.60;;;22.70;44.50;;;;;;5010999;28;20033;-68
2021/10/24 10:19:37;;;;;;;12.60;3.35;;;22.70;43.80;;;;;;5026933;28;20053;-68
2021/10/24 10:22:21;;;;;;;8.63;3.40;;;22.80;43.60;;;;;;5033814;28;20480;-66
2021/10/24 10:24:53;;;;;;;10.65;2.97;;;22.80;43.40;;;;;;5030744;28;20063;-69
2021/10/24 10:27:35;;;;;;;10.57;4.25;;;22.90;43.90;;;;;;5012217;28;20042;-69
2021/10/24 10:30:15;;;;;;;9.95;5.32;;;23.00;43.70;;;;;;5011152;28;20062;-68
2021/10/24 10:32:53;;;;;;;12.25;3.70;;;23.00;43.00;;;;;;5012056;28;20014;-68
2021/10/24 10:35:22;;;;;;;9.40;2.88;;;23.10;43.30;;;;;;5011304;28;20097;-70
2021/10/24 10:37:55;;;;;;;14.57;3.95;;;23.20;43.20;;;;;;5011509;28;20054;-70
2021/10/24 10:40:38;;;;;;;12.05;3.40;;;23.20;42.80;;;;;;5011364;28;20376;-68
2021/10/24 10:43:24;;;;;;;16.17;3.28;;;23.30;42.50;;;;;;5024765;28;20029;-68
2021/10/24 10:45:56;;;;;;;11.05;2.92;;;23.40;42.70;;;;;;5027407;28;20120;-70
2021/10/24 10:48:46;;;;;;;13.15;3.17;;;23.40;42.20;;;;;;5030730;28;20104;-70
2021/10/24 10:51:21;;;;;;;10.77;4.90;;;23.40;42.10;;;;;;5030747;28;20060;-68
2021/10/24 10:53:47;;;;;;;6.82;3.40;;;23.40;42.00;;;;;;5031568;28;20029;-69
2021/10/24 10:56:21;;;;;;;8.13;2.75;;;23.50;41.70;;;;;;5030271;28;20053;-66
2021/10/24 10:58:53;;;;;;;12.77;3.53;;;23.50;41.50;;;;;;5031687;28;20017;-66
2021/10/24 11:01:21;;;;;;;4.82;2.08;;;23.50;41.00;;;;;;5030546;28;20021;-65
2021/10/24 11:04:14;;;;;;;7.05;2.70;;;23.60;41.10;;;;;;5030921;28;20014;-68
2021/10/24 11:06:40;;;;;;;8.82;3.28;;;23.60;41.10;;;;;;5031350;28;20056;-66
2021/10/24 11:09:39;;;;;;;11.23;3.70;;;23.70;40.70;;;;;;5030143;28;20049;-65
2021/10/24 11:12:09;;;;;;;6.97;2.78;;;23.70;40.70;;;;;;5031059;28;20026;-69
2021/10/24 11:14:43;;;;;;;11.25;4.18;;;23.80;40.50;;;;;;5030652;28;20033;-68
2021/10/24 11:17:33;;;;;;;9.38;2.80;;;23.90;40.70;;;;;;5030264;28;20022;-70
2021/10/24 11:20:14;;;;;;;12.20;3.67;;;23.90;40.40;;;;;;5027250;28;20038;-65
2021/10/24 11:22:58;;;;;;;11.43;4.18;;;24.00;40.30;;;;;;5031041;28;20074;-70
2021/10/24 11:25:33;;;;;;;9.80;3.22;;;24.10;40.50;;;;;;5030137;28;20029;-75
2021/10/24 11:28:08;;;;;;;7.20;3.35;;;24.10;40.50;;;;;;5034557;28;20031;-65
2021/10/24 11:30:37;;;;;;;11.52;2.35;;;24.10;39.70;;;;;;5039603;28;20752;-66
2021/10/24 11:33:04;;;;;;;7.70;3.28;;;24.10;39.60;;;;;;5033529;28;20021;-75
2021/10/24 11:35:31;;;;;;;10.23;3.83;;;24.20;39.60;;;;;;5038912;28;20022;-66
2021/10/24 11:38:00;;;;;;;19.30;9.68;;;24.20;39.30;;;;;;5033148;28;20052;-70
2021/10/24 11:40:29;;;;;;;12.85;5.50;;;24.20;39.50;;;;;;5035920;28;20010;-72
2021/10/24 11:43:10;;;;;;;11.20;3.75;;;24.20;39.90;;;;;;5037849;28;20499;-66
2021/10/24 11:45:44;;;;;;;8.82;3.72;;;24.20;39.90;;;;;;5036561;28;20029;-66
2021/10/24 11:48:28;;;;;;;12.23;3.58;;;24.20;39.40;;;;;;5038220;28;20028;-70
2021/10/24 11:51:06;;;;;;;13.57;3.72;;;24.30;39.60;;;;;;5041173;28;20021;-68
2021/10/24 11:53:35;;;;;;;9.10;2.95;;;24.30;39.70;;;;;;5039009;28;20083;-66
2021/10/24 12:01:43;;;;;;;11.55;4.20;;;24.40;40.00;;;;;;5033914;28;20566;-68
2021/10/24 12:04:12;;;;;;;11.00;4.00;;;24.40;39.30;;;;;;5034845;28;20043;-73
2021/10/24 12:07:02;;;;;;;14.93;3.97;;;24.40;39.30;;;;;;5036658;28;20033;-74
2021/10/24 12:09:29;;;;;;;8.52;3.53;;;24.40;39.40;;;;;;5027386;28;20026;-66
2021/10/24 12:12:06;;;;;;;4.53;2.22;;;24.50;39.30;;;;;;5028401;28;20021;-67
2021/10/24 12:14:32;;;;;;;8.10;2.90;;;24.50;39.00;;;;;;5029733;28;20504;-66
2021/10/24 12:16:59;;;;;;;10.15;3.65;;;24.40;39.10;;;;;;5028736;28;20056;-63
2021/10/24 12:19:30;;;;;;;6.55;3.10;;;24.40;39.30;;;;;;5028920;28;20100;-67
2021/10/24 12:22:01;;;;;;;11.40;3.40;;;24.40;39.60;;;;;;5033715;28;20022;-72
2021/10/24 12:24:42;;;;;;;8.40;4.50;;;24.30;39.50;;;;;;5033969;28;20028;-68
2021/10/24 12:27:35;;;;;;;5.47;2.40;;;24.40;40.10;;;;;;5025817;28;20042;-69
2021/10/24 12:30:31;;;;;;;10.10;3.75;;;24.40;40.20;;;;;;5029616;28;20034;-78
2021/10/24 12:33:01;;;;;;;8.82;3.58;;;24.40;40.10;;;;;;5032823;28;20032;-70
2021/10/24 12:35:29;;;;;;;15.05;5.22;;;24.40;40.50;;;;;;5038766;28;20017;-66
2021/10/24 12:38:02;;;;;;;14.48;5.03;;;24.50;40.00;;;;;;5034086;28;20037;-67
2021/10/24 12:40:33;;;;;;;12.85;4.38;;;24.50;39.80;;;;;;5033705;28;20029;-66
2021/10/24 12:43:08;;;;;;;11.00;7.38;;;24.60;40.00;;;;;;5043245;28;20033;-70
2021/10/24 12:45:49;;;;;;;13.60;6.05;;;24.60;39.80;;;;;;5026621;28;20041;-67
2021/10/24 12:48:17;;;;;;;9.15;5.18;;;24.60;39.80;;;;;;5028986;28;20021;-65
2021/10/24 12:50:44;;;;;;;22.10;13.15;;;24.70;39.70;;;;;;5030041;28;20061;-66
2021/10/24 12:53:19;;;;;;;16.35;7.35;;;24.70;39.20;;;;;;5031959;28;20072;-66
2021/10/24 12:56:18;;;;;;;15.93;7.03;;;24.70;39.50;;;;;;5032058;28;20028;-66
2021/10/24 12:58:45;;;;;;;11.20;4.68;;;24.70;39.10;;;;;;5008907;28;20059;-65
2021/10/24 13:01:24;;;;;;;9.38;4.75;;;24.60;39.10;;;;;;5030383;28;20399;-64
2021/10/24 13:03:52;;;;;;;10.48;5.07;;;24.60;38.50;;;;;;5032385;28;20022;-66
2021/10/24 13:06:20;;;;;;;7.00;4.40;;;24.60;38.50;;;;;;5036879;28;20065;-66
2021/10/24 13:08:47;;;;;;;9.32;3.25;;;24.50;38.50;;;;;;5035415;28;20033;-68
2021/10/24 13:11:14;;;;;;;9.63;4.30;;;24.50;38.70;;;;;;5031870;28;20488;-65
2021/10/24 13:13:41;;;;;;;10.18;5.38;;;24.40;38.60;;;;;;5035203;28;20171;-66
2021/10/24 13:16:09;;;;;;;10.32;6.03;;;24.40;38.70;;;;;;5036427;28;20010;-73
2021/10/24 13:18:36;;;;;;;12.88;4.78;;;24.40;39.00;;;;;;5035618;28;20029;-68
2021/10/24 13:21:07;;;;;;;11.00;4.63;;;24.40;39.00;;;;;;5031125;28;20029;-65
2021/10/24 13:23:34;;;;;;;17.65;10.25;;;24.30;38.60;;;;;;5034713;28;20122;-72
2021/10/24 13:26:00;;;;;;;18.10;8.75;;;24.30;39.00;;;;;;5033749;28;20041;-65
2021/10/24 13:28:27;;;;;;;14.30;6.65;;;24.30;39.10;;;;;;5026132;28;20416;-67
2021/10/24 13:30:53;;;;;;;16.10;7.10;;;24.30;39.30;;;;;;5036392;28;20036;-68
2021/10/24 13:33:20;;;;;;;10.90;4.65;;;24.30;39.30;;;;;;5035960;28;20076;-68
2021/10/24 13:35:47;;;;;;;13.40;5.07;;;24.20;38.80;;;;;;5038276;28;20013;-66
2021/10/24 13:38:14;;;;;;;12.65;4.13;;;24.20;38.40;;;;;;5033965;28;20025;-66
2021/10/24 13:40:40;;;;;;;11.10;4.70;;;24.10;38.70;;;;;;5025914;28;20017;-69
2021/10/24 13:43:07;;;;;;;11.63;3.90;;;24.10;39.20;;;;;;5032375;28;20389;-74
2021/10/24 13:45:34;;;;;;;9.27;4.20;;;24.10;38.90;;;;;;5037081;28;20030;-69
2021/10/24 13:48:04;;;;;;;9.52;3.15;;;24.00;39.00;;;;;;5034976;28;20428;-71
2021/10/24 13:50:31;;;;;;;8.95;2.95;;;23.90;39.00;;;;;;5031760;28;20018;-71
2021/10/24 13:52:57;;;;;;;8.32;3.40;;;23.90;39.40;;;;;;5032415;28;20534;-74
2021/10/24 13:55:24;;;;;;;9.90;3.30;;;23.80;39.70;;;;;;5036324;28;20029;-68
2021/10/24 13:57:50;;;;;;;9.93;2.97;;;23.80;40.00;;;;;;5029805;28;20029;-68
2021/10/24 14:00:17;;;;;;;9.38;3.55;;;23.90;40.30;;;;;;5032889;28;20068;-68
2021/10/24 14:03:03;;;;;;;11.52;2.78;;;23.90;40.20;;;;;;5032960;28;20593;-66
2021/10/24 14:05:34;;;;;;;18.35;9.40;;;23.90;40.30;;;;;;5039378;28;20040;-69
2021/10/24 14:08:01;;;;;;;17.90;7.43;;;23.80;40.20;;;;;;5027982;28;20052;-72
2021/10/24 14:10:32;;;;;;;11.73;3.47;;;23.80;40.70;;;;;;5032364;28;20010;-72
2021/10/24 14:12:59;;;;;;;8.45;3.20;;;23.60;40.80;;;;;;5031344;28;20017;-70
2021/10/24 14:15:26;;;;;;;9.20;3.10;;;23.60;41.40;;;;;;5033463;28;20021;-69
2021/10/24 14:17:53;;;;;;;11.00;3.85;;;23.60;41.10;;;;;;5023300;28;20373;-69
2021/10/24 14:20:19;;;;;;;10.50;2.72;;;23.60;41.40;;;;;;5030430;28;20018;-67
2021/10/24 14:22:47;;;;;;;15.52;3.22;;;23.60;41.70;;;;;;5037842;28;20032;-74
2021/10/24 14:25:14;;;;;;;10.18;4.18;;;23.60;41.60;;;;;;5031282;28;20025;-71
2021/10/24 14:27:41;;;;;;;9.05;2.85;;;23.50;41.90;;;;;;5035444;28;20033;-74
2021/10/24 14:30:09;;;;;;;6.25;2.78;;;23.50;42.10;;;;;;5034573;28;20136;-74
2021/10/24 14:32:37;;;;;;;12.45;3.00;;;23.40;42.10;;;;;;5034264;28;20526;-73
2021/10/24 14:35:05;;;;;;;9.80;2.80;;;23.30;42.20;;;;;;5033515;28;20485;-74
2021/10/24 14:37:32;;;;;;;10.23;3.45;;;23.30;43.00;;;;;;5032305;28;20125;-73
2021/10/24 14:39:58;;;;;;;9.88;3.22;;;23.30;43.60;;;;;;5032308;28;20796;-66
2021/10/24 14:42:25;;;;;;;10.77;3.38;;;23.30;43.80;;;;;;5031608;28;20041;-70
2021/10/24 14:44:51;;;;;;;10.55;3.80;;;23.30;44.10;;;;;;5032045;28;20013;-78
2021/10/24 14:47:18;;;;;;;9.93;2.85;;;23.20;44.10;;;;;;5032134;28;20530;-74
2021/10/24 14:49:44;;;;;;;13.90;3.75;;;23.20;44.00;;;;;;5031998;28;20129;-74
2021/10/24 14:52:11;;;;;;;8.13;2.95;;;23.20;44.60;;;;;;5030046;28;20057;-67
2021/10/24 14:54:38;;;;;;;16.58;9.57;;;23.10;45.20;;;;;;5034442;28;20100;-75
2021/10/24 14:57:04;;;;;;;19.77;10.73;;;23.10;46.10;;;;;;5029640;28;20061;-73
2021/10/24 14:59:31;;;;;;;11.82;3.83;;;23.10;45.80;;;;;;5032190;28;20025;-69
2021/10/24 15:01:57;;;;;;;8.98;2.65;;;23.10;45.90;;;;;;5032187;28;20029;-74
2021/10/24 15:04:24;;;;;;;9.50;3.70;;;23.00;45.80;;;;;;5028669;28;20018;-68
2021/10/24 15:06:51;;;;;;;10.85;3.65;;;22.80;45.60;;;;;;5029162;28;20530;-67
2021/10/24 15:09:17;;;;;;;12.50;3.75;;;22.80;46.50;;;;;;5030200;28;20427;-67
2021/10/24 15:11:44;;;;;;;11.60;3.45;;;22.70;46.20;;;;;;5030917;28;20013;-72
2021/10/24 15:14:12;;;;;;;13.88;2.95;;;22.60;46.50;;;;;;5029009;28;20018;-73
2021/10/24 15:16:46;;;;;;;8.38;2.92;;;22.50;47.10;;;;;;5032936;28;20021;-72
2021/10/24 15:21:54;;;;;;;8.30;3.13;;;22.40;47.50;;;;;;5030197;28;20037;-74
2021/10/24 15:24:21;;;;;;;9.70;3.95;;;22.40;47.10;;;;;;5025887;28;20116;-73
2021/10/24 15:26:49;;;;;;;11.15;3.78;;;22.40;46.70;;;;;;5035482;28;20059;-71
2021/10/24 15:29:16;;;;;;;14.95;4.05;;;22.30;47.30;;;;;;5026140;28;20014;-70
2021/10/24 15:32:00;;;;;;;11.50;4.25;;;22.10;48.00;;;;;;5035291;28;20044;-73
2021/10/24 15:34:26;;;;;;;17.92;4.95;;;22.10;48.50;;;;;;5028339;28;20388;-71
2021/10/24 15:36:53;;;;;;;8.35;3.72;;;22.10;48.30;;;;;;5031810;28;20598;-73
2021/10/24 15:39:19;;;;;;;7.78;3.15;;;22.10;48.60;;;;;;5034963;28;20086;-70